createdAt,value
2017-05-08T00:00:19.119Z,10.59
2017-05-08T00:01:20.644Z,10.48
2017-05-08T00:02:42.281Z,10.52
2017-05-08T00:03:43.805Z,10.59
2017-05-08T00:05:05.443Z,10.44
2017-05-08T00:06:06.965Z,10.42
2017-05-08T00:07:28.629Z,10.36
2017-05-08T00:08:30.154Z,10.26
2017-05-08T00:09:51.792Z,10.15
2017-05-08T00:10:53.315Z,10.12
2017-05-08T00:12:14.951Z,10.18
2017-05-08T00:13:16.474Z,10.20
2017-05-08T00:14:38.140Z,10.05
2017-05-08T00:15:39.662Z,10.18
2017-05-08T00:17:01.304Z,10.05
2017-05-08T00:18:02.826Z,10.11
2017-05-08T00:19:24.463Z,10.12
2017-05-08T00:20:25.986Z,10.15
2017-05-08T00:21:47.655Z,10.25
2017-05-08T00:22:49.177Z,10.17
2017-05-08T00:24:10.817Z,10.30
2017-05-08T00:25:12.343Z,10.18
2017-05-08T00:26:34.477Z,10.17
2017-05-08T00:27:36.001Z,10.14
2017-05-08T00:28:57.672Z,10.12
2017-05-08T00:29:59.197Z,10.04
2017-05-08T00:31:20.836Z,10.04
2017-05-08T00:32:22.359Z,10.02
2017-05-08T00:33:43.995Z,10.05
2017-05-08T00:34:45.517Z,9.96
2017-05-08T00:36:07.193Z,10.05
2017-05-08T00:37:08.715Z,9.94
2017-05-08T00:38:30.350Z,10.01
2017-05-08T00:39:31.873Z,9.93
2017-05-08T00:40:53.510Z,9.96
2017-05-08T00:41:55.032Z,9.90
2017-05-08T00:43:16.696Z,9.89
2017-05-08T00:44:18.219Z,9.90
2017-05-08T00:45:39.860Z,9.72
2017-05-08T00:46:41.381Z,9.76
2017-05-08T00:48:03.021Z,9.78
2017-05-08T00:49:04.547Z,9.81
2017-05-08T00:50:26.210Z,9.86
2017-05-08T00:51:27.734Z,9.84
2017-05-08T00:52:49.372Z,9.74
2017-05-08T00:53:50.896Z,9.78
2017-05-08T00:55:12.532Z,9.76
2017-05-08T00:56:14.057Z,9.76
2017-05-08T00:57:35.718Z,9.76
2017-05-08T00:58:37.240Z,9.71
2017-05-08T00:59:58.877Z,9.69
2017-05-08T01:01:00.405Z,9.76
2017-05-08T01:02:22.036Z,9.66
2017-05-08T01:03:23.557Z,9.71
2017-05-08T01:04:45.223Z,9.69
2017-05-08T01:05:46.744Z,9.68
2017-05-08T01:07:08.383Z,9.71
2017-05-08T01:08:09.906Z,9.60
2017-05-08T01:09:31.541Z,9.58
2017-05-08T01:10:33.062Z,9.57
2017-05-08T01:11:54.727Z,9.53
2017-05-08T01:12:56.254Z,9.48
2017-05-08T01:14:17.896Z,9.43
2017-05-08T01:15:19.413Z,9.50
2017-05-08T01:16:41.049Z,9.35
2017-05-08T01:17:42.571Z,9.36
2017-05-08T01:19:04.245Z,9.32
2017-05-08T01:20:05.767Z,9.33
2017-05-08T01:21:27.406Z,9.35
2017-05-08T01:22:28.930Z,9.29
2017-05-08T01:23:50.571Z,9.31
2017-05-08T01:24:52.092Z,9.23
2017-05-08T01:26:13.754Z,9.17
2017-05-08T01:27:15.277Z,9.18
2017-05-08T01:28:36.920Z,9.11
2017-05-08T01:29:38.441Z,9.08
2017-05-08T01:31:00.076Z,9.05
2017-05-08T01:32:01.597Z,8.92
2017-05-08T01:33:23.257Z,8.99
2017-05-08T01:34:24.777Z,8.99
2017-05-08T01:35:46.413Z,8.96
2017-05-08T01:36:47.933Z,8.96
2017-05-08T01:38:09.567Z,8.98
2017-05-08T01:39:11.089Z,8.94
2017-05-08T01:40:32.763Z,8.89
2017-05-08T01:41:34.281Z,8.83
2017-05-08T01:42:55.917Z,8.81
2017-05-08T01:43:57.437Z,8.80
2017-05-08T01:45:19.068Z,8.65
2017-05-08T01:46:20.590Z,8.59
2017-05-08T01:47:42.252Z,8.58
2017-05-08T01:48:43.774Z,8.56
2017-05-08T01:50:05.413Z,8.48
2017-05-08T01:51:06.932Z,8.53
2017-05-08T01:52:28.565Z,8.40
2017-05-08T01:53:30.085Z,8.37
2017-05-08T01:54:51.745Z,8.40
2017-05-08T01:55:53.267Z,8.33
2017-05-08T01:57:14.901Z,8.26
2017-05-08T01:58:16.425Z,8.28
2017-05-08T01:59:38.057Z,8.30
2017-05-08T02:00:39.576Z,8.22
2017-05-08T02:02:01.247Z,8.16
2017-05-08T02:03:02.767Z,8.10
2017-05-08T02:04:24.895Z,8.10
2017-05-08T02:05:26.415Z,8.11
2017-05-08T02:06:48.060Z,8.15
2017-05-08T02:07:49.576Z,8.18
2017-05-08T02:09:11.239Z,8.00
2017-05-08T02:10:12.759Z,8.07
2017-05-08T02:11:34.396Z,8.01
2017-05-08T02:12:35.917Z,8.00
2017-05-08T02:13:57.556Z,7.97
2017-05-08T02:14:59.077Z,7.86
2017-05-08T02:16:20.745Z,7.87
2017-05-08T02:17:22.261Z,7.82
2017-05-08T02:18:43.903Z,7.87
2017-05-08T02:19:45.422Z,7.82
2017-05-08T02:21:07.061Z,7.86
2017-05-08T02:22:08.580Z,7.83
2017-05-08T02:23:30.247Z,7.86
2017-05-08T02:24:31.764Z,7.86
2017-05-08T02:25:53.404Z,7.90
2017-05-08T02:26:54.925Z,7.86
2017-05-08T02:28:16.557Z,7.86
2017-05-08T02:29:18.078Z,7.90
2017-05-08T02:30:39.754Z,7.82
2017-05-08T02:31:41.274Z,7.85
2017-05-08T02:33:02.909Z,7.82
2017-05-08T02:34:04.432Z,7.77
2017-05-08T02:35:26.066Z,7.79
2017-05-08T02:36:27.587Z,7.71
2017-05-08T02:37:49.254Z,7.82
2017-05-08T02:38:50.774Z,7.72
2017-05-08T02:40:12.406Z,7.67
2017-05-08T02:41:14.770Z,7.64
2017-05-08T02:42:36.410Z,7.67
2017-05-08T02:43:37.929Z,7.67
2017-05-08T02:44:59.604Z,7.74
2017-05-08T02:46:01.124Z,7.68
2017-05-08T02:47:22.759Z,7.63
2017-05-08T02:48:24.281Z,7.53
2017-05-08T02:49:45.917Z,7.53
2017-05-08T02:50:47.446Z,7.52
2017-05-08T02:52:09.106Z,7.49
2017-05-08T02:53:10.655Z,7.39
2017-05-08T02:54:32.625Z,7.42
2017-05-08T02:55:34.200Z,7.35
2017-05-08T02:56:56.012Z,7.43
2017-05-08T02:57:57.661Z,7.43
2017-05-08T02:59:19.564Z,7.39
2017-05-08T03:00:21.102Z,7.34
2017-05-08T03:01:42.731Z,7.39
2017-05-08T03:02:44.251Z,7.42
2017-05-08T03:04:05.887Z,7.40
2017-05-08T03:05:07.410Z,7.42
2017-05-08T03:06:29.089Z,7.40
2017-05-08T03:07:30.604Z,7.35
2017-05-08T03:08:52.245Z,7.42
2017-05-08T03:09:53.761Z,7.34
2017-05-08T03:11:15.396Z,7.31
2017-05-08T03:12:16.920Z,7.23
2017-05-08T03:13:38.581Z,7.15
2017-05-08T03:14:40.107Z,7.23
2017-05-08T03:16:01.739Z,7.12
2017-05-08T03:17:03.262Z,7.15
2017-05-08T03:18:24.902Z,7.16
2017-05-08T03:19:26.425Z,7.12
2017-05-08T03:20:48.099Z,7.10
2017-05-08T03:21:49.622Z,7.23
2017-05-08T03:23:11.264Z,7.20
2017-05-08T03:24:12.789Z,7.23
2017-05-08T03:25:34.428Z,7.27
2017-05-08T03:26:35.953Z,7.31
2017-05-08T03:27:57.614Z,7.30
2017-05-08T03:28:59.141Z,7.39
2017-05-08T03:30:20.778Z,7.34
2017-05-08T03:31:22.301Z,7.42
2017-05-08T03:32:43.941Z,7.53
2017-05-08T03:33:45.463Z,7.60
2017-05-08T03:35:07.125Z,7.72
2017-05-08T03:36:08.649Z,7.89
2017-05-08T03:37:30.291Z,8.11
2017-05-08T03:38:31.817Z,8.26
2017-05-08T03:39:53.454Z,8.56
2017-05-08T03:40:54.977Z,8.73
2017-05-08T03:42:16.645Z,8.71
2017-05-08T03:43:18.174Z,8.81
2017-05-08T03:44:39.811Z,8.77
2017-05-08T03:45:41.335Z,8.79
2017-05-08T03:47:02.973Z,8.65
2017-05-08T03:48:04.498Z,8.65
2017-05-08T03:49:26.165Z,8.68
2017-05-08T03:50:27.693Z,8.62
2017-05-08T03:51:49.332Z,8.81
2017-05-08T03:52:50.856Z,8.94
2017-05-08T03:54:12.500Z,8.94
2017-05-08T03:55:14.027Z,9.04
2017-05-08T03:56:35.691Z,9.20
2017-05-08T03:57:37.220Z,9.39
2017-05-08T03:58:58.858Z,9.38
2017-05-08T04:00:00.386Z,9.56
2017-05-08T04:01:22.028Z,9.57
2017-05-08T04:02:23.560Z,9.57
2017-05-08T04:03:45.226Z,9.64
2017-05-08T04:04:46.752Z,9.57
2017-05-08T04:06:08.399Z,9.54
2017-05-08T04:07:09.923Z,9.46
2017-05-08T04:08:31.567Z,9.48
2017-05-08T04:09:33.094Z,9.43
2017-05-08T04:10:54.774Z,9.57
2017-05-08T04:11:56.299Z,9.72
2017-05-08T04:13:17.947Z,9.89
2017-05-08T04:14:19.475Z,10.05
2017-05-08T04:15:41.116Z,10.47
2017-05-08T04:16:42.647Z,10.81
2017-05-08T04:18:04.318Z,11.14
2017-05-08T04:19:05.852Z,11.35
2017-05-08T04:20:27.490Z,11.58
2017-05-08T04:21:29.017Z,11.82
2017-05-08T04:22:50.659Z,12.09
2017-05-08T04:23:52.189Z,12.05
2017-05-08T04:25:13.861Z,12.12
2017-05-08T04:26:15.393Z,12.19
2017-05-08T04:27:37.037Z,12.20
2017-05-08T04:28:39.171Z,12.32
2017-05-08T04:30:00.810Z,12.39
2017-05-08T04:31:02.343Z,12.41
2017-05-08T04:32:24.015Z,12.31
2017-05-08T04:33:25.546Z,12.45
2017-05-08T04:34:47.188Z,12.53
2017-05-08T04:35:48.719Z,12.62
2017-05-08T04:37:10.364Z,12.47
2017-05-08T04:38:11.890Z,12.28
2017-05-08T04:39:33.558Z,12.21
2017-05-08T04:40:35.088Z,12.14
2017-05-08T04:41:56.739Z,11.96
2017-05-08T04:42:58.266Z,11.98
2017-05-08T04:44:20.402Z,11.78
2017-05-08T04:45:21.932Z,11.73
2017-05-08T04:46:43.615Z,11.76
2017-05-08T04:47:45.142Z,11.80
2017-05-08T04:49:06.784Z,11.70
2017-05-08T04:50:08.314Z,11.64
2017-05-08T04:51:29.952Z,11.61
2017-05-08T04:52:31.483Z,11.67
2017-05-08T04:53:53.158Z,11.69
2017-05-08T04:54:54.691Z,11.55
2017-05-08T04:56:16.336Z,11.57
2017-05-08T04:57:17.863Z,11.60
2017-05-08T04:58:39.507Z,11.51
2017-05-08T04:59:41.038Z,11.40
2017-05-08T05:01:02.705Z,11.37
2017-05-08T05:02:04.238Z,11.40
2017-05-08T05:03:25.880Z,11.36
2017-05-08T05:04:27.414Z,11.28
2017-05-08T05:05:49.055Z,11.35
2017-05-08T05:06:50.585Z,11.40
2017-05-08T05:08:12.259Z,11.39
2017-05-08T05:09:13.787Z,11.47
2017-05-08T05:10:35.430Z,11.40
2017-05-08T05:11:36.962Z,11.55
2017-05-08T05:12:58.606Z,11.58
2017-05-08T05:14:00.134Z,11.67
2017-05-08T05:15:21.805Z,11.67
2017-05-08T05:16:23.336Z,11.73
2017-05-08T05:17:44.987Z,11.80
2017-05-08T05:18:46.516Z,12.05
2017-05-08T05:20:08.159Z,12.07
2017-05-08T05:21:09.691Z,12.16
2017-05-08T05:22:31.369Z,12.21
2017-05-08T05:23:32.898Z,12.29
2017-05-08T05:24:54.546Z,12.29
2017-05-08T05:25:56.076Z,12.38
2017-05-08T05:27:17.723Z,12.38
2017-05-08T05:28:19.256Z,12.28
2017-05-08T05:29:40.930Z,12.29
2017-05-08T05:30:42.456Z,12.21
2017-05-08T05:32:04.100Z,12.13
2017-05-08T05:33:05.633Z,12.19
2017-05-08T05:34:27.279Z,12.13
2017-05-08T05:35:28.812Z,12.09
2017-05-08T05:36:50.479Z,12.02
2017-05-08T05:37:52.010Z,12.04
2017-05-08T05:39:13.653Z,11.95
2017-05-08T05:40:15.184Z,11.98
2017-05-08T05:41:36.826Z,12.04
2017-05-08T05:42:38.356Z,12.01
2017-05-08T05:44:00.037Z,11.98
2017-05-08T05:45:01.567Z,12.04
2017-05-08T05:46:23.210Z,11.99
2017-05-08T05:47:24.744Z,12.09
2017-05-08T05:48:46.384Z,12.09
2017-05-08T05:49:47.911Z,12.20
2017-05-08T05:51:09.586Z,12.17
2017-05-08T05:52:11.114Z,12.13
2017-05-08T05:53:32.756Z,12.28
2017-05-08T05:54:34.284Z,12.19
2017-05-08T05:55:55.924Z,12.29
2017-05-08T05:56:57.456Z,12.35
2017-05-08T05:58:19.140Z,12.39
2017-05-08T05:59:20.670Z,12.45
2017-05-08T06:00:42.313Z,12.56
2017-05-08T06:01:43.844Z,12.57
2017-05-08T06:03:05.486Z,12.68
2017-05-08T06:04:07.020Z,12.72
2017-05-08T06:05:28.686Z,12.79
2017-05-08T06:06:30.218Z,12.78
2017-05-08T06:07:51.866Z,12.77
2017-05-08T06:08:53.402Z,12.75
2017-05-08T06:10:15.044Z,12.72
2017-05-08T06:11:16.575Z,12.65
2017-05-08T06:12:38.265Z,12.64
2017-05-08T06:13:39.795Z,12.57
2017-05-08T06:15:01.448Z,12.65
2017-05-08T06:16:02.977Z,12.71
2017-05-08T06:17:24.626Z,12.72
2017-05-08T06:18:26.158Z,12.65
2017-05-08T06:19:47.842Z,12.67
2017-05-08T06:20:49.376Z,12.74
2017-05-08T06:22:11.016Z,12.68
2017-05-08T06:23:12.552Z,12.65
2017-05-08T06:24:34.197Z,12.65
2017-05-08T06:25:35.729Z,12.71
2017-05-08T06:26:57.414Z,12.64
2017-05-08T06:27:58.944Z,12.64
2017-05-08T06:29:20.593Z,12.67
2017-05-08T06:30:22.124Z,12.64
2017-05-08T06:31:43.769Z,12.77
2017-05-08T06:32:45.303Z,12.83
2017-05-08T06:34:06.976Z,12.96
2017-05-08T06:35:08.513Z,13.07
2017-05-08T06:36:30.161Z,13.17
2017-05-08T06:37:31.692Z,13.11
2017-05-08T06:38:53.333Z,13.07
2017-05-08T06:39:54.868Z,13.03
2017-05-08T06:41:16.545Z,13.12
2017-05-08T06:42:18.083Z,13.07
2017-05-08T06:43:39.728Z,13.15
2017-05-08T06:44:41.266Z,13.08
2017-05-08T06:46:02.911Z,13.11
2017-05-08T06:47:04.444Z,13.11
2017-05-08T06:48:26.120Z,13.10
2017-05-08T06:49:27.655Z,13.12
2017-05-08T06:50:49.300Z,13.00
2017-05-08T06:51:50.836Z,12.96
2017-05-08T06:53:12.481Z,12.95
2017-05-08T06:54:14.016Z,12.82
2017-05-08T06:55:35.692Z,12.93
2017-05-08T06:56:37.224Z,12.89
2017-05-08T06:57:58.872Z,13.07
2017-05-08T06:59:00.405Z,13.01
2017-05-08T07:00:22.054Z,12.97
2017-05-08T07:01:23.617Z,12.96
2017-05-08T07:02:45.270Z,13.01
2017-05-08T07:03:46.800Z,12.90
2017-05-08T07:05:08.446Z,12.82
2017-05-08T07:06:09.978Z,12.90
2017-05-08T07:07:31.621Z,12.75
2017-05-08T07:08:33.155Z,12.86
2017-05-08T07:09:54.825Z,12.96
2017-05-08T07:10:56.357Z,12.92
2017-05-08T07:12:18.000Z,12.83
2017-05-08T07:13:19.529Z,12.95
2017-05-08T07:14:41.175Z,12.82
2017-05-08T07:15:42.707Z,12.87
2017-05-08T07:17:04.386Z,12.79
2017-05-08T07:18:05.919Z,12.79
2017-05-08T07:19:27.564Z,12.72
2017-05-08T07:20:29.091Z,12.65
2017-05-08T07:21:50.736Z,12.62
2017-05-08T07:22:52.265Z,12.47
2017-05-08T07:24:13.934Z,12.46
2017-05-08T07:25:15.464Z,12.47
2017-05-08T07:26:37.108Z,12.46
2017-05-08T07:27:38.638Z,12.39
2017-05-08T07:29:00.282Z,12.53
2017-05-08T07:30:01.813Z,12.56
2017-05-08T07:31:23.487Z,12.59
2017-05-08T07:32:25.018Z,12.64
2017-05-08T07:33:46.665Z,12.71
2017-05-08T07:34:48.197Z,12.74
2017-05-08T07:36:09.844Z,12.83
2017-05-08T07:37:11.378Z,12.89
2017-05-08T07:38:33.061Z,12.83
2017-05-08T07:39:34.591Z,12.85
2017-05-08T07:40:56.233Z,12.89
2017-05-08T07:41:57.764Z,12.93
2017-05-08T07:43:19.410Z,13.05
2017-05-08T07:44:20.941Z,13.00
2017-05-08T07:45:42.622Z,13.12
2017-05-08T07:46:44.152Z,13.11
2017-05-08T07:48:05.800Z,13.38
2017-05-08T07:49:07.335Z,13.36
2017-05-08T07:50:28.979Z,13.45
2017-05-08T07:51:30.510Z,13.52
2017-05-08T07:52:52.189Z,13.48
2017-05-08T07:53:53.721Z,13.51
2017-05-08T07:55:15.367Z,13.44
2017-05-08T07:56:16.904Z,13.38
2017-05-08T07:57:38.551Z,13.45
2017-05-08T07:58:40.080Z,13.45
2017-05-08T08:00:01.751Z,13.57
2017-05-08T08:01:03.282Z,13.71
2017-05-08T08:02:24.928Z,13.69
2017-05-08T08:03:26.459Z,13.88
2017-05-08T08:04:48.109Z,14.06
2017-05-08T08:05:49.640Z,14.09
2017-05-08T08:07:11.308Z,14.15
2017-05-08T08:08:12.839Z,14.14
2017-05-08T08:09:34.482Z,14.18
2017-05-08T08:10:36.011Z,14.20
2017-05-08T08:11:57.653Z,14.25
2017-05-08T08:12:59.187Z,14.25
2017-05-08T08:14:20.869Z,14.21
2017-05-08T08:15:22.400Z,14.32
2017-05-08T08:16:44.044Z,14.50
2017-05-08T08:17:45.577Z,14.57
2017-05-08T08:19:07.220Z,14.57
2017-05-08T08:20:08.755Z,14.58
2017-05-08T08:21:30.438Z,14.65
2017-05-08T08:22:31.968Z,14.64
2017-05-08T08:23:53.614Z,14.69
2017-05-08T08:24:55.149Z,14.72
2017-05-08T08:26:16.795Z,14.65
2017-05-08T08:27:18.329Z,14.75
2017-05-08T08:28:40.015Z,14.62
2017-05-08T08:29:41.545Z,14.58
2017-05-08T08:31:03.190Z,14.57
2017-05-08T08:32:04.756Z,14.58
2017-05-08T08:33:26.369Z,14.51
2017-05-08T08:34:27.902Z,14.55
2017-05-08T08:35:49.571Z,14.70
2017-05-08T08:36:51.107Z,14.69
2017-05-08T08:38:12.758Z,14.77
2017-05-08T08:39:14.292Z,14.78
2017-05-08T08:40:35.937Z,14.91
2017-05-08T08:41:37.471Z,14.89
2017-05-08T08:42:59.143Z,14.77
2017-05-08T08:44:00.679Z,14.73
2017-05-08T08:45:22.331Z,14.77
2017-05-08T08:46:23.865Z,14.70
2017-05-08T08:47:45.511Z,14.61
2017-05-08T08:48:47.045Z,14.57
2017-05-08T08:50:08.729Z,14.65
2017-05-08T08:51:10.261Z,14.73
2017-05-08T08:52:31.911Z,14.86
2017-05-08T08:53:33.453Z,14.91
2017-05-08T08:54:55.096Z,14.80
2017-05-08T08:55:56.628Z,14.89
2017-05-08T08:57:18.295Z,15.02
2017-05-08T08:58:19.827Z,14.95
2017-05-08T08:59:41.514Z,15.02
2017-05-08T09:00:43.050Z,15.09
2017-05-08T09:02:04.700Z,15.23
2017-05-08T09:03:06.231Z,15.43
2017-05-08T09:04:27.909Z,15.56
2017-05-08T09:05:29.444Z,15.53
2017-05-08T09:06:51.122Z,15.60
2017-05-08T09:07:52.622Z,15.62
2017-05-08T09:09:14.270Z,15.50
2017-05-08T09:10:15.800Z,15.65
2017-05-08T09:11:37.478Z,15.65
2017-05-08T09:12:39.012Z,15.49
2017-05-08T09:14:00.654Z,15.57
2017-05-08T09:15:02.187Z,15.53
2017-05-08T09:16:23.831Z,15.27
2017-05-08T09:17:25.362Z,15.17
2017-05-08T09:18:47.035Z,14.96
2017-05-08T09:19:48.566Z,15.02
2017-05-08T09:21:10.210Z,15.01
2017-05-08T09:22:11.740Z,15.13
2017-05-08T09:23:33.393Z,15.10
2017-05-08T09:24:34.924Z,15.23
2017-05-08T09:25:56.606Z,15.38
2017-05-08T09:26:58.140Z,15.43
2017-05-08T09:28:19.789Z,15.54
2017-05-08T09:29:21.324Z,15.57
2017-05-08T09:30:42.970Z,15.68
2017-05-08T09:31:44.504Z,15.71
2017-05-08T09:33:06.178Z,15.82
2017-05-08T09:34:07.717Z,15.93
2017-05-08T09:35:29.360Z,16.12
2017-05-08T09:36:30.896Z,16.21
2017-05-08T09:37:52.549Z,16.31
2017-05-08T09:38:54.084Z,16.28
2017-05-08T09:40:15.763Z,16.31
2017-05-08T09:41:17.296Z,16.57
2017-05-08T09:42:38.948Z,16.79
2017-05-08T09:43:40.482Z,16.79
2017-05-08T09:45:02.138Z,16.91
2017-05-08T09:46:03.674Z,16.89
2017-05-08T09:47:25.354Z,16.88
2017-05-08T09:48:26.887Z,16.85
2017-05-08T09:49:48.535Z,16.58
2017-05-08T09:50:50.069Z,16.42
2017-05-08T09:52:11.717Z,16.24
2017-05-08T09:53:13.254Z,16.05
2017-05-08T09:54:35.423Z,15.89
2017-05-08T09:55:36.954Z,15.80
2017-05-08T09:56:58.608Z,15.71
2017-05-08T09:58:00.140Z,15.67
2017-05-08T09:59:21.790Z,15.53
2017-05-08T10:00:23.325Z,15.54
2017-05-08T10:01:45.001Z,15.57
2017-05-08T10:02:46.534Z,15.56
2017-05-08T10:04:08.190Z,15.65
2017-05-08T10:05:09.726Z,15.75
2017-05-08T10:06:31.380Z,15.75
2017-05-08T10:07:32.914Z,15.80
2017-05-08T10:08:54.593Z,15.75
2017-05-08T10:09:56.129Z,15.82
2017-05-08T10:11:17.782Z,15.92
2017-05-08T10:12:19.320Z,16.00
2017-05-08T10:13:40.965Z,15.92
2017-05-08T10:14:42.501Z,15.74
2017-05-08T10:16:04.180Z,15.74
2017-05-08T10:17:05.717Z,15.62
2017-05-08T10:18:27.372Z,15.72
2017-05-08T10:19:28.907Z,15.67
2017-05-08T10:20:50.562Z,15.69
2017-05-08T10:21:52.097Z,15.74
2017-05-08T10:23:13.775Z,15.72
2017-05-08T10:24:15.306Z,15.71
2017-05-08T10:25:36.958Z,15.80
2017-05-08T10:26:38.492Z,15.80
2017-05-08T10:28:00.147Z,15.75
2017-05-08T10:29:01.678Z,15.72
2017-05-08T10:30:23.355Z,15.75
2017-05-08T10:31:24.891Z,15.65
2017-05-08T10:32:46.544Z,15.50
2017-05-08T10:33:48.078Z,15.47
2017-05-08T10:35:09.728Z,15.38
2017-05-08T10:36:11.271Z,15.44
2017-05-08T10:37:32.936Z,15.43
2017-05-08T10:38:34.472Z,15.43
2017-05-08T10:39:56.119Z,15.47
2017-05-08T10:40:57.645Z,15.54
2017-05-08T10:42:19.293Z,15.56
2017-05-08T10:43:20.827Z,15.49
2017-05-08T10:44:42.505Z,15.29
2017-05-08T10:45:44.039Z,15.29
2017-05-08T10:47:05.695Z,15.14
2017-05-08T10:48:07.225Z,15.10
2017-05-08T10:49:28.871Z,14.94
2017-05-08T10:50:30.405Z,14.86
2017-05-08T10:51:52.091Z,14.69
2017-05-08T10:52:53.625Z,14.52
2017-05-08T10:54:15.272Z,14.28
2017-05-08T10:55:16.803Z,14.33
2017-05-08T10:56:38.449Z,14.28
2017-05-08T10:57:39.984Z,14.27
2017-05-08T10:59:01.669Z,14.00
2017-05-08T11:00:03.197Z,14.07
2017-05-08T11:01:24.842Z,13.92
2017-05-08T11:02:26.375Z,13.78
2017-05-08T11:03:48.020Z,13.73
2017-05-08T11:04:49.551Z,13.73
2017-05-08T11:06:11.231Z,13.67
2017-05-08T11:07:12.763Z,13.59
2017-05-08T11:08:34.409Z,13.52
2017-05-08T11:09:35.943Z,13.42
2017-05-08T11:10:57.588Z,13.41
2017-05-08T11:11:59.121Z,13.33
2017-05-08T11:13:20.796Z,13.33
2017-05-08T11:14:22.328Z,13.33
2017-05-08T11:15:43.979Z,13.39
2017-05-08T11:16:45.513Z,13.39
2017-05-08T11:18:07.159Z,13.38
2017-05-08T11:19:08.695Z,13.45
2017-05-08T11:20:30.375Z,13.36
2017-05-08T11:21:31.906Z,13.36
2017-05-08T11:22:53.553Z,13.17
2017-05-08T11:23:55.084Z,13.23
2017-05-08T11:25:16.735Z,13.20
2017-05-08T11:26:18.268Z,13.15
2017-05-08T11:27:39.941Z,13.17
2017-05-08T11:28:41.474Z,13.10
2017-05-08T11:30:03.122Z,13.01
2017-05-08T11:31:04.656Z,12.95
2017-05-08T11:32:26.303Z,13.00
2017-05-08T11:33:27.834Z,13.00
2017-05-08T11:34:49.506Z,12.92
2017-05-08T11:35:51.037Z,13.05
2017-05-08T11:37:12.693Z,13.10
2017-05-08T11:38:14.218Z,13.07
2017-05-08T11:39:35.863Z,12.93
2017-05-08T11:40:37.397Z,12.96
2017-05-08T11:41:59.066Z,12.83
2017-05-08T11:43:00.597Z,12.86
2017-05-08T11:44:22.245Z,12.74
2017-05-08T11:45:23.779Z,12.65
2017-05-08T11:46:45.422Z,12.57
2017-05-08T11:47:46.953Z,12.54
2017-05-08T11:49:08.638Z,12.50
2017-05-08T11:50:10.167Z,12.52
2017-05-08T11:51:31.812Z,12.50
2017-05-08T11:52:33.345Z,12.47
2017-05-08T11:53:55.481Z,12.38
2017-05-08T11:54:57.013Z,12.32
2017-05-08T11:56:18.687Z,12.24
2017-05-08T11:57:20.218Z,12.16
2017-05-08T11:58:41.863Z,12.09
2017-05-08T11:59:43.392Z,12.20
2017-05-08T12:01:05.034Z,12.21
2017-05-08T12:02:06.565Z,12.16
2017-05-08T12:03:28.249Z,12.17
2017-05-08T12:04:29.779Z,12.10
2017-05-08T12:05:51.426Z,12.09
2017-05-08T12:06:52.956Z,12.23
2017-05-08T12:08:14.604Z,12.17
2017-05-08T12:09:16.134Z,12.14
2017-05-08T12:10:37.812Z,11.94
2017-05-08T12:11:39.342Z,11.75
2017-05-08T12:13:00.989Z,11.47
2017-05-08T12:14:02.517Z,11.51
2017-05-08T12:15:24.161Z,11.39
2017-05-08T12:16:25.692Z,11.44
2017-05-08T12:17:47.369Z,11.49
2017-05-08T12:18:48.897Z,11.47
2017-05-08T12:20:10.545Z,11.60
2017-05-08T12:21:12.078Z,11.69
2017-05-08T12:22:33.720Z,11.67
2017-05-08T12:23:35.251Z,11.64
2017-05-08T12:24:56.934Z,11.57
2017-05-08T12:25:58.464Z,11.60
2017-05-08T12:27:20.109Z,11.47
2017-05-08T12:28:21.637Z,11.35
2017-05-08T12:29:43.281Z,11.36
2017-05-08T12:30:44.811Z,11.40
2017-05-08T12:32:06.510Z,11.36
2017-05-08T12:33:08.041Z,11.37
2017-05-08T12:34:30.188Z,11.29
2017-05-08T12:35:31.707Z,11.29
2017-05-08T12:36:53.353Z,11.22
2017-05-08T12:37:54.882Z,11.28
2017-05-08T12:39:16.561Z,11.29
2017-05-08T12:40:18.089Z,11.32
2017-05-08T12:41:39.736Z,11.32
2017-05-08T12:42:41.270Z,11.29
2017-05-08T12:44:02.915Z,11.33
2017-05-08T12:45:04.444Z,11.28
2017-05-08T12:46:26.117Z,11.49
2017-05-08T12:47:27.649Z,11.52
2017-05-08T12:48:49.297Z,11.52
2017-05-08T12:49:50.828Z,11.51
2017-05-08T12:51:12.477Z,11.32
2017-05-08T12:52:14.006Z,11.55
2017-05-08T12:53:35.677Z,11.46
2017-05-08T12:54:37.207Z,11.25
2017-05-08T12:55:58.853Z,11.19
2017-05-08T12:57:00.406Z,11.29
2017-05-08T12:58:22.083Z,11.39
2017-05-08T12:59:23.619Z,11.39
2017-05-08T13:00:45.302Z,11.24
2017-05-08T13:01:46.829Z,11.42
2017-05-08T13:03:08.470Z,11.33
2017-05-08T13:04:10.003Z,11.22
2017-05-08T13:05:31.650Z,11.21
2017-05-08T13:06:33.173Z,11.19
2017-05-08T13:07:54.841Z,11.03
2017-05-08T13:08:56.373Z,11.07
2017-05-08T13:10:18.026Z,10.97
2017-05-08T13:11:19.553Z,10.96
2017-05-08T13:12:41.196Z,11.02
2017-05-08T13:13:42.726Z,10.91
2017-05-08T13:15:04.399Z,10.94
2017-05-08T13:16:05.930Z,10.85
2017-05-08T13:17:27.575Z,10.68
2017-05-08T13:18:29.106Z,10.67
2017-05-08T13:19:50.749Z,10.68
2017-05-08T13:20:52.277Z,10.73
2017-05-08T13:22:13.949Z,10.70
2017-05-08T13:23:15.482Z,10.73
2017-05-08T13:24:37.122Z,10.61
2017-05-08T13:25:38.652Z,10.67
2017-05-08T13:27:00.300Z,10.68
2017-05-08T13:28:01.827Z,10.73
2017-05-08T13:29:23.509Z,10.64
2017-05-08T13:30:25.040Z,10.71
2017-05-08T13:31:46.687Z,10.70
2017-05-08T13:32:48.216Z,10.70
2017-05-08T13:34:09.858Z,10.66
2017-05-08T13:35:11.387Z,10.66
2017-05-08T13:36:33.071Z,10.55
2017-05-08T13:37:34.604Z,10.68
2017-05-08T13:38:56.249Z,10.73
2017-05-08T13:39:57.780Z,10.88
2017-05-08T13:41:19.423Z,10.74
2017-05-08T13:42:20.954Z,10.71
2017-05-08T13:43:42.629Z,10.60
2017-05-08T13:44:44.159Z,10.61
2017-05-08T13:46:05.801Z,10.47
2017-05-08T13:47:07.331Z,10.56
2017-05-08T13:48:28.977Z,10.52
2017-05-08T13:49:30.506Z,10.55
2017-05-08T13:50:52.178Z,10.59
2017-05-08T13:51:53.707Z,10.47
2017-05-08T13:53:15.350Z,10.48
2017-05-08T13:54:16.881Z,10.45
2017-05-08T13:55:38.523Z,10.42
2017-05-08T13:56:40.051Z,10.42
2017-05-08T13:58:01.727Z,10.38
2017-05-08T13:59:03.361Z,10.48
2017-05-08T14:00:25.010Z,10.27
2017-05-08T14:01:26.540Z,10.22
2017-05-08T14:02:48.183Z,10.17
2017-05-08T14:03:49.710Z,10.12
2017-05-08T14:05:11.377Z,10.22
2017-05-08T14:06:12.908Z,10.02
2017-05-08T14:07:34.552Z,9.97
2017-05-08T14:08:36.081Z,10.07
2017-05-08T14:09:57.723Z,9.99
2017-05-08T14:10:59.248Z,10.01
2017-05-08T14:12:20.919Z,9.96
2017-05-08T14:13:22.444Z,10.02
2017-05-08T14:14:44.101Z,10.08
2017-05-08T14:15:46.887Z,10.18
2017-05-08T14:17:08.593Z,10.20
2017-05-08T14:18:10.121Z,10.14
2017-05-08T14:19:31.796Z,10.15
2017-05-08T14:20:33.329Z,10.20
2017-05-08T14:21:54.968Z,10.12
2017-05-08T14:22:56.507Z,10.20
2017-05-08T14:24:18.187Z,10.11
2017-05-08T14:25:19.903Z,9.94
2017-05-08T14:26:41.586Z,9.91
2017-05-08T14:27:43.123Z,9.93
2017-05-08T14:29:04.770Z,9.97
2017-05-08T14:30:06.302Z,9.87
2017-05-08T14:31:28.024Z,9.81
2017-05-08T14:32:29.517Z,9.86
2017-05-08T14:33:51.680Z,9.76
2017-05-08T14:34:53.199Z,9.89
2017-05-08T14:36:14.840Z,9.90
2017-05-08T14:37:16.371Z,9.93
2017-05-08T14:38:38.013Z,9.96
2017-05-08T14:39:39.575Z,9.90
2017-05-08T14:41:01.249Z,9.89
2017-05-08T14:42:02.854Z,9.90
2017-05-08T14:43:24.497Z,9.96
2017-05-08T14:44:26.250Z,9.78
2017-05-08T14:45:47.899Z,9.99
2017-05-08T14:46:49.461Z,9.97
2017-05-08T14:48:11.137Z,9.94
2017-05-08T14:49:12.691Z,9.90
2017-05-08T14:50:34.334Z,9.86
2017-05-08T14:51:35.863Z,9.91
2017-05-08T14:52:58.587Z,9.78
2017-05-08T15:28:49.049Z,9.64
2017-05-08T15:29:50.574Z,9.58
2017-05-08T15:31:12.724Z,9.58
2017-05-08T15:32:14.249Z,9.53
2017-05-08T15:33:35.895Z,9.54
2017-05-08T15:34:37.451Z,9.48
2017-05-08T15:35:59.131Z,9.46
2017-05-08T15:37:00.648Z,9.50
2017-05-08T15:38:22.277Z,9.43
2017-05-08T15:39:23.811Z,9.43
2017-05-08T15:40:45.450Z,9.46
2017-05-08T15:41:46.982Z,9.46
2017-05-08T15:43:08.644Z,9.54
2017-05-08T15:44:10.219Z,9.54
2017-05-08T15:45:31.869Z,9.42
2017-05-08T15:46:33.394Z,9.65
2017-05-08T15:47:55.080Z,9.57
2017-05-08T15:48:56.605Z,9.40
2017-05-08T15:50:18.271Z,9.50
2017-05-08T15:51:19.797Z,9.46
2017-05-08T15:52:41.439Z,9.40
2017-05-08T15:53:42.966Z,9.48
2017-05-08T15:55:04.610Z,9.46
2017-05-08T15:56:06.135Z,9.42
2017-05-08T15:57:27.812Z,9.60
2017-05-08T15:58:29.339Z,9.57
2017-05-08T15:59:50.986Z,9.60
2017-05-08T16:00:52.510Z,9.72
2017-05-08T16:02:14.155Z,9.83
2017-05-08T16:03:15.681Z,9.75
2017-05-08T16:04:37.843Z,9.86
2017-05-08T16:05:39.396Z,9.91